Time;durP1;ratioP1;P1;durP2;ratioP2;P2;SDS_P1;SDS_P2;PMS_P1;PMS_P2;Temp;Humidity;BMP_temperature;BMP_pressure;BME280_temperature;BME280_humidity;BME280_pressure;Samples;Min_cycle;Max_cycle;Signal;HPM_P1;HPM_P2
2023/08/10 00:02:05;;;;;;;0.40;0.40;;;21.90;64.70;;;22.11;49.80;95228.16;5054748;28;20279;-39
2023/08/10 00:04:33;;;;;;;0.50;0.50;;;21.90;64.90;;;22.08;49.94;95234.78;5053722;28;20589;-39
2023/08/10 00:07:00;;;;;;;0.40;0.40;;;21.80;64.90;;;22.07;50.07;95236.69;5054729;28;20282;-39
2023/08/10 00:09:27;;;;;;;0.45;0.45;;;21.80;64.90;;;22.07;50.39;95238.56;5055596;28;20646;-39
2023/08/10 00:11:54;;;;;;;0.43;0.43;;;21.80;64.90;;;22.07;50.06;95230.53;5058789;28;20257;-39
2023/08/10 00:14:21;;;;;;;0.40;0.40;;;21.80;64.90;;;22.07;50.36;95235.88;5058202;28;20229;-39
2023/08/10 00:16:49;;;;;;;0.40;0.40;;;21.90;65.00;;;22.05;50.36;95232.66;5058594;28;20184;-39
2023/08/10 00:19:17;;;;;;;0.40;0.40;;;21.90;65.00;;;22.05;50.49;95230.78;5057734;28;20200;-39
2023/08/10 00:21:45;;;;;;;0.50;0.50;;;21.80;64.90;;;22.06;50.38;95220.91;5058649;28;20219;-39
2023/08/10 00:24:12;;;;;;;0.43;0.43;;;21.80;64.90;;;22.04;50.66;95221.16;5058792;28;20325;-39
2023/08/10 00:26:40;;;;;;;0.40;0.40;;;21.80;64.90;;;22.04;50.61;95215.81;5058665;28;20535;-39
2023/08/10 00:29:07;;;;;;;0.50;0.50;;;21.80;64.90;;;22.03;50.59;95214.22;5058485;28;20629;-39
2023/08/10 00:31:34;;;;;;;0.40;0.40;;;21.80;64.90;;;22.04;50.64;95231.84;5058355;28;20524;-39
2023/08/10 00:34:01;;;;;;;0.45;0.45;;;21.80;64.90;;;22.02;50.68;95223.28;5057473;28;20206;-39
2023/08/10 00:36:28;;;;;;;0.40;0.40;;;21.80;64.90;;;22.00;50.64;95225.41;5074061;28;20193;-39
2023/08/10 00:38:56;;;;;;;0.40;0.40;;;21.80;64.90;;;22.01;50.43;95229.69;5057368;28;20207;-39
2023/08/10 00:41:23;;;;;;;0.50;0.50;;;21.80;64.90;;;22.01;50.40;95234.25;5058546;28;20301;-39
2023/08/10 00:43:50;;;;;;;0.40;0.40;;;21.80;64.90;;;21.99;50.34;95231.00;5073961;28;20628;-39
2023/08/10 00:46:17;;;;;;;0.40;0.40;;;21.80;64.90;;;21.98;50.37;95243.53;5057065;28;20271;-39
2023/08/10 00:48:45;;;;;;;0.40;0.40;;;21.90;65.00;;;21.96;50.23;95248.34;5058157;28;20196;-39
2023/08/10 00:51:12;;;;;;;0.40;0.40;;;21.80;64.90;;;21.96;50.27;95247.53;5057046;28;20225;-39
2023/08/10 00:53:41;;;;;;;0.50;0.50;;;21.80;64.90;;;21.96;50.44;95248.34;5040586;28;20240;-39
2023/08/10 00:56:10;;;;;;;0.43;0.43;;;21.80;64.90;;;21.94;50.27;95252.34;5056922;28;20234;-39
2023/08/10 00:58:38;;;;;;;0.40;0.40;;;21.80;64.90;;;21.93;50.24;95254.19;5040574;28;20197;-39
2023/08/10 01:01:05;;;;;;;0.40;0.40;;;21.80;64.90;;;21.93;50.41;95253.41;5057022;28;20204;-39
2023/08/10 01:03:32;;;;;;;0.40;0.40;;;21.80;64.90;;;21.91;50.60;95246.44;5056918;28;20203;-39
2023/08/10 01:06:54;;;;;;;0.40;0.40;;;21.80;64.90;;;21.89;50.54;95253.09;5057848;28;20200;-39
2023/08/10 01:09:43;;;;;;;0.47;0.47;;;21.80;64.90;;;21.85;50.60;95255.47;5040397;28;20200;-39
2023/08/10 01:12:55;;;;;;;0.45;0.45;;;21.80;64.90;;;21.85;50.41;95246.66;5057989;28;20223;-39
2023/08/10 01:15:34;;;;;;;0.40;0.40;;;21.70;64.80;;;21.83;50.22;95248.78;5030479;28;20258;-37
2023/08/10 01:18:07;;;;;;;0.40;0.40;;;21.70;64.80;;;21.81;50.22;95246.34;5056766;28;20211;-36
2023/08/10 01:20:35;;;;;;;0.43;0.43;;;21.70;64.80;;;21.81;50.43;95256.22;5056077;28;20192;-36
2023/08/10 01:23:22;;;;;;;0.47;0.47;;;21.70;64.80;;;21.79;50.38;95247.66;5055938;28;20204;-36
2023/08/10 01:25:52;;;;;;;0.50;0.50;;;21.60;64.80;;;21.78;50.60;95254.09;5056373;28;20591;-36
2023/08/10 01:28:19;;;;;;;0.43;0.43;;;21.60;64.70;;;21.75;50.65;95245.53;5040274;28;20195;-36
2023/08/10 01:30:46;;;;;;;0.50;0.50;;;21.60;64.80;;;21.76;50.34;95254.31;5056368;28;20310;-36
2023/08/10 01:33:13;;;;;;;0.40;0.40;;;21.60;64.80;;;21.75;50.05;95245.53;5056348;28;20227;-36
2023/08/10 01:35:40;;;;;;;0.40;0.40;;;21.60;64.80;;;21.75;50.17;95250.03;5057372;28;20211;-36
2023/08/10 01:38:08;;;;;;;0.40;0.40;;;21.60;64.80;;;21.71;50.30;95241.72;5056281;28;20199;-36
2023/08/10 01:40:35;;;;;;;0.40;0.40;;;21.60;64.80;;;21.75;50.68;95244.69;5056199;28;20232;-36
2023/08/10 01:43:02;;;;;;;0.43;0.43;;;21.60;64.80;;;21.75;50.82;95242.03;5056204;28;20204;-39
2023/08/10 01:45:30;;;;;;;0.40;0.40;;;21.60;64.80;;;21.72;50.62;95235.34;5057258;28;20631;-37
2023/08/10 01:48:04;;;;;;;0.45;0.45;;;21.60;64.80;;;21.72;50.84;95240.66;5056162;28;20199;-37
2023/08/10 01:50:40;;;;;;;0.50;0.50;;;21.60;64.80;;;21.72;50.74;95248.69;5057802;28;20623;-37
2023/08/10 01:53:14;;;;;;;0.40;0.40;;;21.60;64.80;;;21.72;50.74;95243.34;5056935;28;20236;-37
2023/08/10 01:55:42;;;;;;;0.40;0.40;;;21.60;64.80;;;21.72;50.70;95242.53;5055972;28;20196;-37
2023/08/10 01:58:09;;;;;;;0.40;0.40;;;21.60;64.70;;;21.73;50.86;95244.97;5023074;28;20196;-37
2023/08/10 02:00:38;;;;;;;0.40;0.40;;;21.60;64.70;;;21.71;51.09;95243.59;5055936;28;20193;-37
2023/08/10 02:03:06;;;;;;;0.40;0.40;;;21.60;64.80;;;21.72;51.07;95251.34;5055925;28;20253;-37
2023/08/10 02:05:34;;;;;;;0.40;0.40;;;21.60;64.80;;;21.71;50.87;95244.41;5056671;28;20212;-37
2023/08/10 02:08:01;;;;;;;0.40;0.40;;;21.60;64.80;;;21.72;50.83;95248.69;5055724;28;20207;-37
2023/08/10 02:10:28;;;;;;;0.50;0.50;;;21.60;64.80;;;21.72;50.98;95254.03;5055609;28;20217;-37
2023/08/10 02:12:55;;;;;;;0.40;0.40;;;21.60;64.80;;;21.71;50.95;95257.75;5039243;28;20268;-37
2023/08/10 02:15:23;;;;;;;0.40;0.40;;;21.60;64.80;;;21.72;50.83;95259.34;5055402;28;20250;-37
2023/08/10 02:17:50;;;;;;;0.43;0.43;;;21.60;64.80;;;21.72;51.20;95253.22;5055532;28;20191;-37
2023/08/10 02:20:18;;;;;;;0.40;0.40;;;21.60;64.80;;;21.73;50.88;95249.50;5055510;28;20197;-37
2023/08/10 02:22:48;;;;;;;0.40;0.40;;;21.60;64.70;;;21.73;50.79;95246.84;5055426;28;20590;-37
2023/08/10 02:25:16;;;;;;;0.40;0.40;;;21.60;64.70;;;21.73;50.73;95249.50;5056610;28;20197;-37
2023/08/10 02:27:46;;;;;;;0.43;0.43;;;21.60;64.80;;;21.74;51.10;95259.13;5056139;28;20192;-37
2023/08/10 02:30:15;;;;;;;0.47;0.47;;;21.60;64.80;;;21.72;51.16;95254.03;5056164;28;20285;-37
2023/08/10 02:32:42;;;;;;;0.40;0.40;;;21.60;64.70;;;21.72;50.75;95258.56;5038623;28;20644;-37
2023/08/10 02:35:10;;;;;;;0.40;0.40;;;21.60;65.70;;;21.71;51.04;95257.75;5056154;28;20278;-37
2023/08/10 02:37:38;;;;;;;0.40;0.40;;;21.60;64.80;;;21.71;51.05;95259.63;5056684;28;20278;-37
2023/08/10 02:40:07;;;;;;;0.40;0.40;;;21.60;65.70;;;21.70;51.24;95264.16;5056090;28;20192;-37
2023/08/10 02:42:34;;;;;;;0.40;0.40;;;21.60;64.70;;;21.70;50.85;95269.50;5055931;28;20520;-37
2023/08/10 02:45:02;;;;;;;0.40;0.40;;;21.60;64.80;;;21.71;50.78;95272.97;5055008;28;20211;-37
2023/08/10 02:47:29;;;;;;;0.40;0.40;;;21.60;64.80;;;21.70;51.33;95282.03;5054827;28;20539;-37
2023/08/10 02:49:56;;;;;;;0.47;0.47;;;21.60;64.80;;;21.70;51.16;95282.03;5055935;28;20193;-37
2023/08/10 02:52:24;;;;;;;0.40;0.40;;;21.60;64.80;;;21.70;51.21;95279.38;5055499;28;20675;-37
2023/08/10 02:54:51;;;;;;;0.50;0.50;;;21.60;64.70;;;21.68;51.18;95282.28;5055850;28;20193;-37
2023/08/10 02:57:18;;;;;;;0.40;0.40;;;21.60;64.80;;;21.70;50.97;95290.03;5054714;28;20198;-37
2023/08/10 02:59:45;;;;;;;0.43;0.43;;;21.60;64.80;;;21.69;51.36;95293.75;5071547;28;20263;-37
2023/08/10 03:02:19;;;;;;;0.40;0.40;;;21.60;64.80;;;21.68;51.22;95294.81;5055625;28;20205;-37
2023/08/10 03:04:48;;;;;;;0.40;0.40;;;21.60;64.80;;;21.67;51.34;95294.03;5055608;28;20193;-37
2023/08/10 03:07:15;;;;;;;0.40;0.40;;;21.60;64.70;;;21.67;51.12;95296.69;5055444;28;20693;-37
2023/08/10 03:09:43;;;;;;;0.50;0.50;;;21.60;64.80;;;21.67;51.18;95288.69;5054862;28;20208;-37
2023/08/10 03:12:13;;;;;;;0.50;0.50;;;21.60;64.80;;;21.67;51.18;95283.34;5071693;28;20226;-37
2023/08/10 03:14:42;;;;;;;0.50;0.50;;;21.60;64.80;;;21.68;51.02;95289.47;5054470;28;20287;-37
2023/08/10 03:17:10;;;;;;;0.40;0.40;;;21.60;64.80;;;21.66;50.87;95292.41;5054267;28;20592;-37
2023/08/10 03:19:40;;;;;;;0.50;0.50;;;21.60;64.80;;;21.65;51.19;95295.34;5054364;28;20567;-37
2023/08/10 03:22:08;;;;;;;0.57;0.57;;;21.60;64.70;;;21.65;51.19;95293.47;5071039;28;20322;-37
2023/08/10 03:24:37;;;;;;;0.40;0.40;;;21.50;64.70;;;21.64;51.25;95291.88;5054555;28;20230;-37
2023/08/10 03:27:04;;;;;;;0.40;0.40;;;21.60;64.80;;;21.65;51.00;95298.00;5055057;28;20193;-37
2023/08/10 03:29:32;;;;;;;0.40;0.40;;;21.60;64.80;;;21.64;51.18;95299.06;5054332;28;20199;-37
2023/08/10 03:32:00;;;;;;;0.43;0.43;;;21.50;64.70;;;21.63;51.11;95297.44;5054215;28;20536;-37
2023/08/10 03:34:27;;;;;;;0.43;0.43;;;21.50;64.70;;;21.63;50.87;95303.59;5054191;28;20212;-37
2023/08/10 03:36:55;;;;;;;0.45;0.45;;;21.50;64.70;;;21.62;51.11;95309.19;5037731;28;20258;-37
2023/08/10 03:39:23;;;;;;;0.40;0.40;;;21.50;64.70;;;21.62;51.24;95310.00;5054081;28;20207;-37
2023/08/10 03:41:50;;;;;;;0.40;0.40;;;21.50;64.70;;;21.62;51.10;95317.19;5055289;28;20208;-37
2023/08/10 03:44:18;;;;;;;0.40;0.40;;;21.50;64.70;;;21.61;51.24;95308.38;5054604;28;20235;-37
2023/08/10 03:46:45;;;;;;;0.40;0.40;;;21.60;64.80;;;21.61;51.40;95316.41;5053906;28;20209;-37
2023/08/10 03:49:12;;;;;;;0.50;0.50;;;21.50;64.70;;;21.61;51.02;95311.06;5037617;28;20215;-37
2023/08/10 03:51:40;;;;;;;0.40;0.40;;;21.50;64.70;;;21.62;51.28;95314.50;5053683;28;20223;-37
2023/08/10 03:54:07;;;;;;;0.40;0.40;;;21.50;64.70;;;21.62;51.02;95317.19;5055347;28;20513;-37
2023/08/10 03:56:34;;;;;;;0.40;0.40;;;21.50;64.60;;;21.63;51.08;95313.47;5054809;28;20220;-37
2023/08/10 03:59:02;;;;;;;0.50;0.50;;;21.50;64.60;;;21.62;50.95;95310.00;5037538;28;20262;-37
2023/08/10 04:01:29;;;;;;;0.40;0.40;;;21.50;64.70;;;21.62;51.40;95320.69;5053867;28;20205;-37
2023/08/10 04:03:56;;;;;;;0.40;0.40;;;21.50;64.70;;;21.61;51.42;95313.72;5054745;28;20659;-37
2023/08/10 04:06:23;;;;;;;0.40;0.40;;;21.50;64.60;;;21.62;51.23;95319.84;5037240;28;20216;-37
2023/08/10 04:08:50;;;;;;;0.40;0.40;;;21.60;64.80;;;21.60;51.70;95306.78;5054990;28;20207;-37
2023/08/10 04:11:18;;;;;;;0.40;0.40;;;21.50;64.70;;;21.61;51.21;95313.72;5055169;28;20578;-37
2023/08/10 04:13:46;;;;;;;0.40;0.40;;;21.50;64.70;;;21.62;51.40;95312.66;5053815;28;20202;-37
2023/08/10 04:16:14;;;;;;;0.47;0.47;;;21.50;64.70;;;21.62;51.28;95315.34;5053499;28;20658;-37
2023/08/10 04:18:41;;;;;;;0.40;0.40;;;21.50;64.60;;;21.62;50.82;95307.34;5053803;28;20202;-37
2023/08/10 04:21:08;;;;;;;0.50;0.50;;;21.50;64.70;;;21.62;50.70;95298.50;5053673;28;20199;-37
2023/08/10 04:23:35;;;;;;;0.40;0.40;;;21.50;64.70;;;21.61;51.14;95299.59;5053728;28;20188;-37
2023/08/10 04:26:02;;;;;;;0.40;0.40;;;21.50;64.70;;;21.59;51.34;95308.66;5054561;28;20204;-37
2023/08/10 04:28:30;;;;;;;0.40;0.40;;;21.50;64.60;;;21.60;51.13;95306.78;5054449;28;20714;-37
2023/08/10 04:30:57;;;;;;;0.50;0.50;;;21.50;64.70;;;21.60;51.02;95301.44;5054721;28;20306;-37
2023/08/10 04:33:24;;;;;;;0.50;0.50;;;21.50;64.70;;;21.61;51.25;95294.25;5054492;28;20200;-37
2023/08/10 04:35:52;;;;;;;0.30;0.30;;;21.50;64.70;;;21.60;50.85;95298.75;5054501;28;20568;-37
2023/08/10 04:38:19;;;;;;;0.40;0.40;;;21.40;64.60;;;21.59;51.38;95292.63;5053371;28;20195;-37
2023/08/10 04:40:46;;;;;;;0.40;0.40;;;21.40;64.60;;;21.59;51.23;95292.63;5054453;28;20511;-37
2023/08/10 04:43:14;;;;;;;0.40;0.40;;;21.50;65.60;;;21.59;50.97;95297.97;5054414;28;20191;-37
2023/08/10 04:45:41;;;;;;;0.32;0.32;;;21.50;64.70;;;21.61;51.46;95302.25;5053540;28;20581;-37
2023/08/10 04:48:10;;;;;;;0.47;0.47;;;21.50;64.70;;;21.58;51.19;95299.03;5054343;28;20227;-37
2023/08/10 04:50:37;;;;;;;0.40;0.40;;;21.50;64.70;;;21.58;51.23;95304.34;5054286;28;20279;-37
2023/08/10 04:53:04;;;;;;;0.40;0.40;;;21.50;64.70;;;21.59;51.08;95307.81;5054185;28;20237;-37
2023/08/10 04:55:31;;;;;;;0.40;0.40;;;21.50;64.70;;;21.59;51.18;95311.31;5055067;28;20202;-37
2023/08/10 04:57:59;;;;;;;0.50;0.50;;;21.50;64.70;;;21.59;51.46;95316.66;5058076;28;20275;-37
2023/08/10 05:00:26;;;;;;;0.40;0.40;;;21.50;64.70;;;21.59;51.21;95307.81;5058010;28;20217;-37
2023/08/10 05:02:53;;;;;;;0.47;0.47;;;21.50;64.70;;;21.59;51.12;95310.50;5057932;28;20201;-37
2023/08/10 05:05:21;;;;;;;0.40;0.40;;;21.50;64.70;;;21.60;51.58;95317.44;5057894;28;20200;-37
2023/08/10 05:07:48;;;;;;;0.50;0.50;;;21.50;64.70;;;21.59;51.30;95319.31;5057813;28;20204;-37
2023/08/10 05:10:16;;;;;;;0.40;0.40;;;21.50;64.70;;;21.58;51.55;95322.22;5057765;28;20201;-37
2023/08/10 05:12:43;;;;;;;0.50;0.50;;;21.50;64.70;;;21.59;51.06;95327.31;5057666;28;20300;-37
2023/08/10 05:15:13;;;;;;;0.40;0.40;;;21.50;64.80;;;21.61;51.50;95334.28;5057678;28;20635;-37
2023/08/10 05:17:41;;;;;;;0.40;0.40;;;21.50;64.80;;;21.61;51.14;95334.28;5057794;28;20553;-37
2023/08/10 05:20:12;;;;;;;0.30;0.30;;;21.50;64.80;;;21.61;51.31;95336.94;5057630;28;20197;-37
2023/08/10 05:22:42;;;;;;;0.40;0.40;;;21.50;64.80;;;21.59;51.35;95340.69;5058442;28;20502;-37
2023/08/10 05:25:11;;;;;;;0.45;0.45;;;21.50;64.80;;;21.60;51.30;95346.81;5057541;28;20535;-37
2023/08/10 05:27:42;;;;;;;0.40;0.40;;;21.50;64.70;;;21.59;51.44;95342.53;5057733;28;20193;-37
2023/08/10 05:30:11;;;;;;;0.40;0.40;;;21.50;64.70;;;21.59;51.05;95340.69;5056737;28;20294;-37
2023/08/10 05:32:43;;;;;;;0.40;0.40;;;21.50;64.70;;;21.59;51.09;95350.53;5057889;28;20221;-37
2023/08/10 05:35:13;;;;;;;0.47;0.47;;;21.50;64.70;;;21.57;51.04;95345.44;5057633;28;20189;-37
2023/08/10 05:37:41;;;;;;;0.32;0.32;;;21.50;64.70;;;21.57;51.13;95352.66;5072760;28;20192;-37
2023/08/10 05:40:11;;;;;;;0.50;0.50;;;21.50;64.70;;;21.55;51.11;95363.53;5056918;28;20184;-37
2023/08/10 05:42:41;;;;;;;0.40;0.40;;;21.40;64.60;;;21.55;50.99;95368.09;5057157;28;20530;-37
2023/08/10 05:45:14;;;;;;;0.50;0.50;;;21.40;64.60;;;21.52;51.08;95365.91;5057127;28;20194;-37
2023/08/10 05:47:43;;;;;;;0.50;0.50;;;21.40;64.60;;;21.52;50.90;95372.06;5057074;28;20588;-37
2023/08/10 05:50:10;;;;;;;0.50;0.50;;;21.40;64.60;;;21.51;51.10;95369.66;5057168;28;20187;-37
2023/08/10 05:52:38;;;;;;;0.40;0.40;;;21.40;64.80;;;21.50;51.27;95365.38;5056758;28;20325;-37
2023/08/10 05:55:05;;;;;;;0.50;0.50;;;21.40;64.80;;;21.49;50.77;95369.88;5057188;28;20207;-37
2023/08/10 05:57:32;;;;;;;0.40;0.40;;;21.30;64.80;;;21.48;51.03;95365.59;5056990;28;20284;-37
2023/08/10 06:00:00;;;;;;;0.40;0.40;;;21.30;64.90;;;21.49;51.08;95371.75;5057183;28;20193;-37
2023/08/10 06:02:27;;;;;;;0.40;0.40;;;21.30;64.90;;;21.48;51.37;95368.25;5056828;28;20197;-37
2023/08/10 06:04:54;;;;;;;0.50;0.50;;;21.30;65.00;;;21.49;51.28;95374.41;5056766;28;20215;-37
2023/08/10 06:07:22;;;;;;;0.50;0.50;;;21.30;65.10;;;21.49;51.49;95374.41;5055991;28;20201;-37
2023/08/10 06:09:49;;;;;;;0.40;0.40;;;21.30;65.10;;;21.49;51.36;95374.41;5055745;28;20204;-37
2023/08/10 06:12:17;;;;;;;0.40;0.40;;;21.30;65.10;;;21.49;51.46;95380.56;5056785;28;20221;-37
2023/08/10 06:14:45;;;;;;;0.50;0.50;;;21.30;65.10;;;21.51;50.95;95380.31;5056540;28;20198;-37
2023/08/10 06:17:12;;;;;;;0.40;0.40;;;21.30;65.10;;;21.49;51.54;95377.88;5056407;28;20187;-37
2023/08/10 06:19:39;;;;;;;0.40;0.40;;;21.30;65.10;;;21.51;51.43;95374.97;5056461;28;20196;-37
2023/08/10 06:22:06;;;;;;;0.40;0.40;;;21.30;65.20;;;21.52;51.45;95384.59;5056449;28;20197;-37
2023/08/10 06:24:35;;;;;;;0.50;0.50;;;21.30;65.10;;;21.52;51.26;95390.75;5056393;28;20670;-37
2023/08/10 06:27:03;;;;;;;0.47;0.47;;;21.30;65.20;;;21.53;51.38;95381.69;5056204;28;20224;-37
2023/08/10 06:29:30;;;;;;;0.45;0.45;;;21.30;65.10;;;21.54;51.36;95385.16;5056292;28;20204;-37
2023/08/10 06:31:57;;;;;;;0.50;0.50;;;21.30;65.20;;;21.52;51.26;95390.75;5056459;28;20610;-37
2023/08/10 06:34:24;;;;;;;0.50;0.50;;;21.30;65.10;;;21.53;51.48;95383.53;5056733;28;20530;-37
2023/08/10 06:36:52;;;;;;;0.40;0.40;;;21.30;65.10;;;21.52;51.30;95393.41;5055228;28;20214;-37
2023/08/10 06:39:19;;;;;;;0.40;0.40;;;21.40;65.10;;;21.52;51.44;95393.41;5056044;28;20632;-37
2023/08/10 06:41:46;;;;;;;0.40;0.40;;;21.30;65.10;;;21.52;51.31;95395.25;5056320;28;20291;-37
2023/08/10 06:44:13;;;;;;;0.32;0.32;;;21.30;65.10;;;21.55;51.12;95397.44;5055382;28;20214;-37
2023/08/10 06:46:41;;;;;;;0.50;0.50;;;21.30;65.20;;;21.55;51.48;95406.25;5055979;28;20199;-37
2023/08/10 06:49:08;;;;;;;0.40;0.40;;;21.40;65.30;;;21.56;51.36;95404.41;5055803;28;20222;-37
2023/08/10 06:51:35;;;;;;;0.40;0.40;;;21.40;65.30;;;21.56;51.65;95410.56;5055630;28;20269;-37
2023/08/10 06:54:02;;;;;;;0.40;0.40;;;21.40;65.40;;;21.57;51.58;95404.16;5071732;28;20230;-37
2023/08/10 06:56:30;;;;;;;0.40;0.40;;;21.40;65.40;;;21.58;51.63;95403.13;5056060;28;20624;-37
2023/08/10 06:58:57;;;;;;;0.40;0.40;;;21.40;65.30;;;21.59;51.78;95407.41;5055606;28;20255;-37
2023/08/10 07:01:27;;;;;;;0.50;0.50;;;21.40;65.30;;;21.60;51.77;95400.19;5055263;28;20612;-37
2023/08/10 07:03:54;;;;;;;0.40;0.40;;;21.40;65.30;;;21.61;51.50;95412.50;5054818;28;20205;-37
2023/08/10 07:06:21;;;;;;;0.40;0.40;;;21.40;65.30;;;21.64;51.59;95403.16;5071280;28;20258;-37
2023/08/10 07:08:52;;;;;;;0.40;0.40;;;21.40;65.30;;;21.64;51.43;95405.84;5055604;28;20204;-37
2023/08/10 07:11:20;;;;;;;0.50;0.50;;;21.50;65.40;;;21.64;51.46;95412.00;5056009;28;20192;-37
2023/08/10 07:13:48;;;;;;;0.43;0.43;;;21.40;65.20;;;21.65;51.62;95402.91;5056004;28;20198;-37
2023/08/10 07:16:16;;;;;;;0.45;0.45;;;21.40;65.30;;;21.68;51.44;95410.44;5054789;28;20626;-37
2023/08/10 07:18:44;;;;;;;0.50;0.50;;;21.50;65.30;;;21.68;51.37;95410.44;5054915;28;20244;-37
2023/08/10 07:21:11;;;;;;;0.40;0.40;;;21.50;65.30;;;21.69;51.27;95412.06;5054470;28;20200;-37
2023/08/10 07:23:39;;;;;;;0.50;0.50;;;21.50;66.30;;;21.70;51.47;95416.34;5055301;28;20198;-37
2023/08/10 07:26:06;;;;;;;0.40;0.40;;;21.50;65.30;;;21.71;51.66;95409.13;5070952;28;20628;-37
2023/08/10 07:28:33;;;;;;;0.45;0.45;;;21.50;65.30;;;21.73;51.31;95412.38;5055081;28;20224;-37
2023/08/10 07:31:00;;;;;;;0.40;0.40;;;21.50;65.30;;;21.73;51.59;95415.03;5055216;28;20294;-37
2023/08/10 07:33:28;;;;;;;0.40;0.40;;;21.50;65.20;;;21.76;51.54;95419.84;5055081;28;20646;-37
2023/08/10 07:35:56;;;;;;;0.50;0.50;;;21.50;65.20;;;21.75;51.57;95419.06;5054255;28;20260;-37
2023/08/10 07:38:23;;;;;;;0.40;0.40;;;21.50;65.30;;;21.75;51.46;95415.56;5054945;28;20215;-37
2023/08/10 07:40:50;;;;;;;0.50;0.50;;;21.60;65.30;;;21.76;51.41;95422.53;5055024;28;20200;-37
2023/08/10 07:43:17;;;;;;;0.40;0.40;;;21.60;65.30;;;21.77;51.55;95423.34;5054172;28;20198;-37
2023/08/10 07:45:44;;;;;;;0.40;0.40;;;21.60;65.30;;;21.75;51.34;95419.06;5055238;28;20191;-37
2023/08/10 07:48:11;;;;;;;0.40;0.40;;;21.60;65.20;;;21.73;51.33;95418.50;5055054;28;20544;-37
2023/08/10 07:50:38;;;;;;;0.40;0.40;;;21.50;65.10;;;21.74;51.17;95424.66;5054904;28;20201;-37
2023/08/10 07:53:05;;;;;;;0.40;0.40;;;21.50;65.10;;;21.74;51.49;95432.66;5053755;28;20235;-37
2023/08/10 07:55:32;;;;;;;0.50;0.50;;;21.50;65.10;;;21.74;51.38;95435.34;5054848;28;20254;-37
2023/08/10 07:57:59;;;;;;;0.50;0.50;;;21.50;65.10;;;21.72;51.29;95435.56;5054914;28;20192;-37
2023/08/10 08:00:27;;;;;;;0.40;0.40;;;21.50;65.10;;;21.73;51.22;95431.06;5055082;28;20274;-37
2023/08/10 08:02:54;;;;;;;0.40;0.40;;;21.50;65.10;;;21.73;51.48;95433.72;5054792;28;20534;-37
2023/08/10 08:05:21;;;;;;;0.40;0.40;;;21.50;65.10;;;21.73;51.01;95437.19;5054770;28;20258;-37
2023/08/10 08:07:48;;;;;;;0.40;0.40;;;21.50;65.20;;;21.73;51.42;95439.84;5054680;28;20266;-37
2023/08/10 08:10:16;;;;;;;0.40;0.40;;;21.50;65.20;;;21.73;51.13;95442.53;5054683;28;20267;-37
2023/08/10 08:12:43;;;;;;;0.47;0.47;;;21.50;66.10;;;21.73;51.07;95441.72;5054627;28;20671;-37
2023/08/10 08:15:10;;;;;;;0.40;0.40;;;21.50;65.20;;;21.72;51.37;95445.47;5054943;28;20219;-37
2023/08/10 08:18:34;;;;;;;0.40;0.40;;;21.50;65.30;;;21.70;51.53;95453.72;5054775;28;20219;-37
2023/08/10 08:21:01;;;;;;;0.40;0.40;;;21.50;65.20;;;21.70;51.41;95442.22;5054839;28;20242;-37
2023/08/10 08:23:28;;;;;;;0.40;0.40;;;21.50;65.20;;;21.70;51.34;95443.03;5054045;28;20204;-37
2023/08/10 08:25:56;;;;;;;0.40;0.40;;;21.50;65.20;;;21.71;51.31;95449.19;5054595;28;20215;-37
2023/08/10 08:28:23;;;;;;;0.40;0.40;;;21.50;65.30;;;21.71;51.43;95447.28;5054466;28;20531;-37
2023/08/10 08:30:52;;;;;;;0.50;0.50;;;21.50;65.30;;;21.72;51.31;95451.59;5055265;28;20224;-37
2023/08/10 08:33:19;;;;;;;0.40;0.40;;;21.40;65.30;;;21.73;51.57;95453.22;5058463;28;20236;-37
2023/08/10 08:35:47;;;;;;;0.50;0.50;;;21.50;65.40;;;21.72;51.68;95456.94;5058478;28;20200;-37
2023/08/10 08:38:15;;;;;;;0.40;0.40;;;21.50;65.40;;;21.74;51.40;95462.03;5058259;28;20504;-37
2023/08/10 08:40:42;;;;;;;0.40;0.40;;;21.50;65.40;;;21.73;51.39;95461.22;5058738;28;20625;-37
2023/08/10 08:43:11;;;;;;;0.50;0.50;;;21.50;65.30;;;21.73;51.04;95457.75;5058548;28;20204;-37
2023/08/10 08:45:41;;;;;;;0.40;0.40;;;21.50;65.30;;;21.72;51.43;95454.25;5058455;28;20274;-37
2023/08/10 08:48:10;;;;;;;0.40;0.40;;;21.50;65.30;;;21.72;51.32;95459.59;5058069;28;20615;-37
2023/08/10 08:50:39;;;;;;;0.40;0.40;;;21.50;65.30;;;21.73;51.41;95457.75;5058101;28;20215;-37
2023/08/10 08:53:08;;;;;;;0.45;0.45;;;21.50;65.30;;;21.74;51.26;95457.50;5057878;28;20240;-37
2023/08/10 08:55:35;;;;;;;0.40;0.40;;;21.40;65.30;;;21.75;51.47;95459.13;5058056;28;20588;-37
2023/08/10 08:58:02;;;;;;;0.40;0.40;;;21.50;65.40;;;21.76;51.25;95467.91;5058419;28;20291;-37
2023/08/10 09:00:31;;;;;;;0.45;0.45;;;21.50;65.40;;;21.75;51.31;95458.28;5057040;28;20539;-37
2023/08/10 09:03:00;;;;;;;0.40;0.40;;;21.50;65.40;;;21.76;51.34;95459.91;5058026;28;20196;-37
2023/08/10 09:05:30;;;;;;;0.45;0.45;;;21.50;65.40;;;21.76;51.55;95459.91;5057893;28;20682;-37
2023/08/10 09:07:58;;;;;;;0.50;0.50;;;21.50;65.40;;;21.80;51.14;95457.53;5057676;28;20200;-36
2023/08/10 09:10:25;;;;;;;0.50;0.50;;;21.50;65.40;;;21.75;51.35;95452.94;5057024;28;20233;-36
2023/08/10 09:12:53;;;;;;;0.40;0.40;;;21.50;65.50;;;21.81;51.62;95454.63;5056844;28;20219;-36
2023/08/10 09:15:20;;;;;;;0.40;0.40;;;21.50;65.60;;;21.82;51.58;95458.91;5057174;28;20196;-36
2023/08/10 09:17:53;;;;;;;0.40;0.40;;;21.50;65.60;;;21.84;51.48;95456.00;5057643;28;20189;-36
2023/08/10 09:20:28;;;;;;;0.40;0.40;;;21.60;66.50;;;21.86;51.17;95460.03;5057541;28;20196;-36
2023/08/10 09:23:01;;;;;;;0.40;0.40;;;21.60;65.70;;;21.89;51.54;95456.06;5057881;28;20180;-36
2023/08/10 09:25:39;;;;;;;0.40;0.40;;;21.60;65.60;;;21.89;51.64;95453.41;5057796;28;20223;-36
2023/08/10 09:28:12;;;;;;;0.40;0.40;;;21.60;65.50;;;21.91;51.63;95445.94;5057271;28;20530;-36
2023/08/10 09:30:41;;;;;;;0.50;0.50;;;21.70;65.60;;;21.92;51.33;95450.22;5058014;28;20204;-36
2023/08/10 09:33:08;;;;;;;0.40;0.40;;;21.60;65.50;;;21.95;51.65;95438.22;5056464;28;20552;-36
2023/08/10 09:35:36;;;;;;;0.40;0.40;;;21.70;65.60;;;21.95;51.57;95451.56;5057330;28;20194;-36
2023/08/10 09:38:04;;;;;;;0.40;0.40;;;21.70;65.60;;;21.97;51.43;95444.13;5057259;28;20216;-36
2023/08/10 09:40:31;;;;;;;0.40;0.40;;;21.70;65.60;;;21.98;51.33;95454.53;5057209;28;20251;-36
2023/08/10 09:42:58;;;;;;;0.47;0.47;;;21.70;65.60;;;22.01;51.58;95447.91;5071851;28;20216;-36
2023/08/10 09:45:26;;;;;;;0.40;0.40;;;21.70;65.60;;;22.02;51.54;95445.00;5057163;28;20201;-36
2023/08/10 09:47:54;;;;;;;0.40;0.40;;;21.70;65.60;;;22.03;51.27;95443.94;5057362;28;20290;-36
2023/08/10 09:50:21;;;;;;;0.40;0.40;;;21.70;65.60;;;22.05;51.29;95447.13;5056931;28;20540;-36
2023/08/10 09:52:49;;;;;;;0.40;0.40;;;21.80;65.50;;;22.07;51.62;95436.22;5055929;28;20315;-36
2023/08/10 09:55:16;;;;;;;0.40;0.40;;;21.80;65.50;;;22.09;51.71;95435.97;5056967;28;20194;-36
2023/08/10 09:57:44;;;;;;;0.40;0.40;;;21.80;65.60;;;22.10;51.57;95425.03;5057166;28;20228;-36
2023/08/10 10:00:22;;;;;;;0.40;0.40;;;21.80;65.50;;;22.12;51.22;95433.59;5056774;28;20696;-36
2023/08/10 10:02:50;;;;;;;0.40;0.40;;;21.80;65.50;;;22.14;51.29;95433.34;5057150;28;20191;-36
2023/08/10 10:05:19;;;;;;;0.40;0.40;;;21.80;65.50;;;22.12;51.51;95430.09;5056926;28;20196;-37
2023/08/10 10:07:49;;;;;;;0.40;0.40;;;21.90;65.50;;;22.15;51.57;95440.31;5057037;28;20286;-37
2023/08/10 10:10:17;;;;;;;0.40;0.40;;;21.90;65.40;;;22.17;51.37;95441.66;5056530;28;20278;-37
2023/08/10 10:12:49;;;;;;;0.40;0.40;;;21.90;65.50;;;22.19;51.58;95436.88;5055857;28;20249;-37
2023/08/10 10:15:20;;;;;;;0.30;0.30;;;21.90;65.30;;;22.20;51.44;95438.50;5055887;28;20244;-39
2023/08/10 10:17:52;;;;;;;0.40;0.40;;;21.90;65.10;;;22.22;51.28;95444.38;5055814;28;20240;-37
2023/08/10 10:20:20;;;;;;;0.40;0.40;;;21.90;65.00;;;22.22;50.94;95444.38;5056667;28;20192;-45
2023/08/10 10:22:49;;;;;;;0.30;0.30;;;22.00;65.10;;;22.26;51.43;95438.53;5056483;28;20198;-39
2023/08/10 10:25:20;;;;;;;0.40;0.40;;;22.00;65.20;;;22.27;51.02;95437.47;5056656;28;20505;-37
2023/08/10 10:27:51;;;;;;;0.40;0.40;;;22.00;65.10;;;22.29;51.05;95444.19;5072512;28;20207;-37